sensor_id;sensor_type;location;lat;lon;timestamp;temperature;humidity
53711;DHT22;39605;52.704;6.752;2023-04-10T00:02:18;7.90;20.40
53711;DHT22;39605;52.704;6.752;2023-04-10T00:04:43;7.90;12.50
53711;DHT22;39605;52.704;6.752;2023-04-10T00:07:09;7.90;19.90
53711;DHT22;39605;52.704;6.752;2023-04-10T00:09:35;7.90;13.60
53711;DHT22;39605;52.704;6.752;2023-04-10T00:12:01;7.90;16.80
53711;DHT22;39605;52.704;6.752;2023-04-10T00:14:27;7.90;15.00
53711;DHT22;39605;52.704;6.752;2023-04-10T00:16:52;7.90;17.20
53711;DHT22;39605;52.704;6.752;2023-04-10T00:19:18;7.90;17.80
53711;DHT22;39605;52.704;6.752;2023-04-10T00:21:44;7.90;24.30
53711;DHT22;39605;52.704;6.752;2023-04-10T00:24:10;7.80;21.60
53711;DHT22;39605;52.704;6.752;2023-04-10T00:26:35;7.80;20.80
53711;DHT22;39605;52.704;6.752;2023-04-10T00:29:02;7.80;20.60
53711;DHT22;39605;52.704;6.752;2023-04-10T00:31:28;7.80;20.60
53711;DHT22;39605;52.704;6.752;2023-04-10T00:33:54;7.80;23.20
53711;DHT22;39605;52.704;6.752;2023-04-10T00:36:19;7.80;22.20
53711;DHT22;39605;52.704;6.752;2023-04-10T00:38:46;7.70;25.10
53711;DHT22;39605;52.704;6.752;2023-04-10T00:41:12;7.70;18.20
53711;DHT22;39605;52.704;6.752;2023-04-10T00:43:37;7.70;25.50
53711;DHT22;39605;52.704;6.752;2023-04-10T00:46:04;7.70;18.00
53711;DHT22;39605;52.704;6.752;2023-04-10T00:48:31;7.60;24.00
53711;DHT22;39605;52.704;6.752;2023-04-10T00:50:58;7.60;27.60
53711;DHT22;39605;52.704;6.752;2023-04-10T00:53:24;7.60;29.50
53711;DHT22;39605;52.704;6.752;2023-04-10T00:55:51;7.50;29.20
53711;DHT22;39605;52.704;6.752;2023-04-10T00:58:17;7.60;26.10
53711;DHT22;39605;52.704;6.752;2023-04-10T01:00:42;7.50;26.20
53711;DHT22;39605;52.704;6.752;2023-04-10T01:03:09;7.50;27.10
53711;DHT22;39605;52.704;6.752;2023-04-10T01:05:41;7.40;30.70
53711;DHT22;39605;52.704;6.752;2023-04-10T01:10:47;7.40;29.50
53711;DHT22;39605;52.704;6.752;2023-04-10T01:13:24;7.40;29.80
53711;DHT22;39605;52.704;6.752;2023-04-10T01:16:06;7.40;29.70
53711;DHT22;39605;52.704;6.752;2023-04-10T01:21:36;7.30;33.70
53711;DHT22;39605;52.704;6.752;2023-04-10T01:29:19;7.30;32.20
53711;DHT22;39605;52.704;6.752;2023-04-10T01:31:53;7.20;36.90
53711;DHT22;39605;52.704;6.752;2023-04-10T01:34:31;7.20;32.00
53711;DHT22;39605;52.704;6.752;2023-04-10T01:37:03;7.20;32.20
53711;DHT22;39605;52.704;6.752;2023-04-10T01:39:30;7.10;37.80
53711;DHT22;39605;52.704;6.752;2023-04-10T01:42:01;7.10;33.00
53711;DHT22;39605;52.704;6.752;2023-04-10T01:44:30;7.10;39.20
53711;DHT22;39605;52.704;6.752;2023-04-10T01:46:57;7.00;36.40
53711;DHT22;39605;52.704;6.752;2023-04-10T01:49:26;7.00;37.90
53711;DHT22;39605;52.704;6.752;2023-04-10T01:51:53;7.00;42.90
53711;DHT22;39605;52.704;6.752;2023-04-10T01:54:26;7.00;40.50
53711;DHT22;39605;52.704;6.752;2023-04-10T01:56:52;7.00;41.70
53711;DHT22;39605;52.704;6.752;2023-04-10T01:59:19;7.00;39.60
53711;DHT22;39605;52.704;6.752;2023-04-10T02:01:45;7.00;42.10
53711;DHT22;39605;52.704;6.752;2023-04-10T02:04:11;6.90;42.70
53711;DHT22;39605;52.704;6.752;2023-04-10T02:06:44;7.00;42.40
53711;DHT22;39605;52.704;6.752;2023-04-10T02:09:21;6.90;41.70
53711;DHT22;39605;52.704;6.752;2023-04-10T02:11:57;6.90;41.30
53711;DHT22;39605;52.704;6.752;2023-04-10T02:14:25;7.00;39.40
53711;DHT22;39605;52.704;6.752;2023-04-10T02:16:55;6.90;37.70
53711;DHT22;39605;52.704;6.752;2023-04-10T02:19:23;6.90;32.20
53711;DHT22;39605;52.704;6.752;2023-04-10T02:21:50;6.90;36.70
53711;DHT22;39605;52.704;6.752;2023-04-10T02:24:16;6.90;37.70
53711;DHT22;39605;52.704;6.752;2023-04-10T02:26:48;7.00;34.90
53711;DHT22;39605;52.704;6.752;2023-04-10T02:29:14;6.90;38.70
53711;DHT22;39605;52.704;6.752;2023-04-10T02:31:41;6.90;38.90
53711;DHT22;39605;52.704;6.752;2023-04-10T02:34:07;6.90;38.40
53711;DHT22;39605;52.704;6.752;2023-04-10T02:36:37;6.90;45.40
53711;DHT22;39605;52.704;6.752;2023-04-10T02:39:04;6.90;45.40
53711;DHT22;39605;52.704;6.752;2023-04-10T02:41:30;6.90;44.00
53711;DHT22;39605;52.704;6.752;2023-04-10T02:43:56;6.80;44.70
53711;DHT22;39605;52.704;6.752;2023-04-10T02:46:21;6.90;41.90
53711;DHT22;39605;52.704;6.752;2023-04-10T02:48:47;6.80;40.70
53711;DHT22;39605;52.704;6.752;2023-04-10T02:51:13;6.80;43.70
53711;DHT22;39605;52.704;6.752;2023-04-10T02:53:39;6.80;43.10
53711;DHT22;39605;52.704;6.752;2023-04-10T02:56:05;6.80;37.70
53711;DHT22;39605;52.704;6.752;2023-04-10T02:58:36;6.80;43.20
53711;DHT22;39605;52.704;6.752;2023-04-10T03:01:04;6.70;47.90
53711;DHT22;39605;52.704;6.752;2023-04-10T03:03:31;6.70;47.70
53711;DHT22;39605;52.704;6.752;2023-04-10T03:05:57;6.70;49.70
53711;DHT22;39605;52.704;6.752;2023-04-10T03:08:22;6.70;44.70
53711;DHT22;39605;52.704;6.752;2023-04-10T03:10:48;6.60;45.60
53711;DHT22;39605;52.704;6.752;2023-04-10T03:13:15;6.60;46.90
53711;DHT22;39605;52.704;6.752;2023-04-10T03:15:40;6.70;45.60
53711;DHT22;39605;52.704;6.752;2023-04-10T03:18:06;6.60;48.90
53711;DHT22;39605;52.704;6.752;2023-04-10T03:20:35;6.70;48.90
53711;DHT22;39605;52.704;6.752;2023-04-10T03:23:01;6.60;47.30
53711;DHT22;39605;52.704;6.752;2023-04-10T03:25:27;6.60;46.20
53711;DHT22;39605;52.704;6.752;2023-04-10T03:27:53;6.60;49.50
53711;DHT22;39605;52.704;6.752;2023-04-10T03:30:19;6.60;46.60
53711;DHT22;39605;52.704;6.752;2023-04-10T03:32:45;6.60;47.30
53711;DHT22;39605;52.704;6.752;2023-04-10T03:35:10;6.60;48.80
53711;DHT22;39605;52.704;6.752;2023-04-10T03:37:36;6.60;48.00
53711;DHT22;39605;52.704;6.752;2023-04-10T03:40:07;6.60;47.60
53711;DHT22;39605;52.704;6.752;2023-04-10T03:42:33;6.50;49.80
53711;DHT22;39605;52.704;6.752;2023-04-10T03:44:59;6.50;45.20
53711;DHT22;39605;52.704;6.752;2023-04-10T03:47:27;6.60;47.70
53711;DHT22;39605;52.704;6.752;2023-04-10T03:49:52;6.50;47.10
53711;DHT22;39605;52.704;6.752;2023-04-10T03:52:19;6.50;49.80
53711;DHT22;39605;52.704;6.752;2023-04-10T03:54:44;6.50;47.80
53711;DHT22;39605;52.704;6.752;2023-04-10T03:57:10;6.50;49.70
53711;DHT22;39605;52.704;6.752;2023-04-10T03:59:36;6.50;51.20
53711;DHT22;39605;52.704;6.752;2023-04-10T04:02:01;6.50;50.50
53711;DHT22;39605;52.704;6.752;2023-04-10T04:04:27;6.50;48.20
53711;DHT22;39605;52.704;6.752;2023-04-10T04:06:55;6.40;51.10
53711;DHT22;39605;52.704;6.752;2023-04-10T04:09:21;6.40;51.10
53711;DHT22;39605;52.704;6.752;2023-04-10T04:11:46;6.40;50.20
53711;DHT22;39605;52.704;6.752;2023-04-10T04:14:12;6.50;52.10
53711;DHT22;39605;52.704;6.752;2023-04-10T04:16:38;6.50;50.50
53711;DHT22;39605;52.704;6.752;2023-04-10T04:19:03;6.40;50.50
53711;DHT22;39605;52.704;6.752;2023-04-10T04:21:29;6.40;49.30
53711;DHT22;39605;52.704;6.752;2023-04-10T04:23:56;6.30;51.60
53711;DHT22;39605;52.704;6.752;2023-04-10T04:26:21;6.30;52.20
53711;DHT22;39605;52.704;6.752;2023-04-10T04:28:49;6.30;53.60
53711;DHT22;39605;52.704;6.752;2023-04-10T04:31:15;6.20;54.20
53711;DHT22;39605;52.704;6.752;2023-04-10T04:33:41;6.20;55.60
53711;DHT22;39605;52.704;6.752;2023-04-10T04:36:07;6.20;53.40
53711;DHT22;39605;52.704;6.752;2023-04-10T04:38:32;6.20;56.20
53711;DHT22;39605;52.704;6.752;2023-04-10T04:40:58;6.20;54.80
53711;DHT22;39605;52.704;6.752;2023-04-10T04:43:24;6.20;56.30
53711;DHT22;39605;52.704;6.752;2023-04-10T04:45:49;6.20;52.70
53711;DHT22;39605;52.704;6.752;2023-04-10T04:48:15;6.20;57.30
53711;DHT22;39605;52.704;6.752;2023-04-10T04:50:41;6.20;55.10
53711;DHT22;39605;52.704;6.752;2023-04-10T04:53:07;6.20;56.50
53711;DHT22;39605;52.704;6.752;2023-04-10T04:55:34;6.20;56.40
53711;DHT22;39605;52.704;6.752;2023-04-10T04:57:59;6.30;55.90
53711;DHT22;39605;52.704;6.752;2023-04-10T05:00:25;6.30;52.50
53711;DHT22;39605;52.704;6.752;2023-04-10T05:02:51;6.30;49.60
53711;DHT22;39605;52.704;6.752;2023-04-10T05:05:16;6.30;50.60
53711;DHT22;39605;52.704;6.752;2023-04-10T05:07:42;6.30;56.10
53711;DHT22;39605;52.704;6.752;2023-04-10T05:10:08;6.40;55.50
53711;DHT22;39605;52.704;6.752;2023-04-10T05:12:34;6.30;54.40
53711;DHT22;39605;52.704;6.752;2023-04-10T05:14:59;6.30;54.80
53711;DHT22;39605;52.704;6.752;2023-04-10T05:17:25;6.30;55.80
53711;DHT22;39605;52.704;6.752;2023-04-10T05:19:51;6.40;50.50
53711;DHT22;39605;52.704;6.752;2023-04-10T05:22:16;6.40;51.60
53711;DHT22;39605;52.704;6.752;2023-04-10T05:24:42;6.50;54.20
53711;DHT22;39605;52.704;6.752;2023-04-10T05:27:08;6.50;51.60
53711;DHT22;39605;52.704;6.752;2023-04-10T05:29:33;6.50;50.20
53711;DHT22;39605;52.704;6.752;2023-04-10T05:32:00;6.60;53.10
53711;DHT22;39605;52.704;6.752;2023-04-10T05:34:25;6.60;49.00
53711;DHT22;39605;52.704;6.752;2023-04-10T05:36:51;6.60;49.60
53711;DHT22;39605;52.704;6.752;2023-04-10T05:39:20;6.70;45.10
53711;DHT22;39605;52.704;6.752;2023-04-10T05:41:45;6.70;43.90
53711;DHT22;39605;52.704;6.752;2023-04-10T05:44:11;6.70;47.70
53711;DHT22;39605;52.704;6.752;2023-04-10T05:46:36;6.80;47.60
53711;DHT22;39605;52.704;6.752;2023-04-10T05:49:02;6.90;47.80
53711;DHT22;39605;52.704;6.752;2023-04-10T05:51:28;6.90;48.60
53711;DHT22;39605;52.704;6.752;2023-04-10T05:53:53;7.00;44.90
53711;DHT22;39605;52.704;6.752;2023-04-10T05:56:19;7.00;47.90
53711;DHT22;39605;52.704;6.752;2023-04-10T05:58:45;7.10;46.50
53711;DHT22;39605;52.704;6.752;2023-04-10T06:01:11;7.20;44.40
53711;DHT22;39605;52.704;6.752;2023-04-10T06:03:38;7.30;43.00
53711;DHT22;39605;52.704;6.752;2023-04-10T06:06:05;7.40;43.30
53711;DHT22;39605;52.704;6.752;2023-04-10T06:08:31;7.50;37.90
53711;DHT22;39605;52.704;6.752;2023-04-10T06:10:57;7.60;34.70
53711;DHT22;39605;52.704;6.752;2023-04-10T06:13:22;7.80;32.90
53711;DHT22;39605;52.704;6.752;2023-04-10T06:15:49;7.80;31.10
53711;DHT22;39605;52.704;6.752;2023-04-10T06:18:14;7.90;29.20
53711;DHT22;39605;52.704;6.752;2023-04-10T06:20:40;8.00;30.00
53711;DHT22;39605;52.704;6.752;2023-04-10T06:23:06;8.10;25.30
53711;DHT22;39605;52.704;6.752;2023-04-10T06:25:31;8.10;25.30
53711;DHT22;39605;52.704;6.752;2023-04-10T06:27:57;8.30;25.40
53711;DHT22;39605;52.704;6.752;2023-04-10T06:30:23;8.40;23.90
53711;DHT22;39605;52.704;6.752;2023-04-10T06:32:49;8.60;24.00
53711;DHT22;39605;52.704;6.752;2023-04-10T06:35:14;8.80;21.40
53711;DHT22;39605;52.704;6.752;2023-04-10T06:37:41;9.00;18.60
53711;DHT22;39605;52.704;6.752;2023-04-10T06:40:08;9.20;15.80
53711;DHT22;39605;52.704;6.752;2023-04-10T06:42:35;9.40;7.30
53711;DHT22;39605;52.704;6.752;2023-04-10T06:45:02;9.70;1.60
53711;DHT22;39605;52.704;6.752;2023-04-10T06:47:28;9.90;1.00
53711;DHT22;39605;52.704;6.752;2023-04-10T06:49:54;10.10;1.00
53711;DHT22;39605;52.704;6.752;2023-04-10T06:52:20;10.20;1.00
53711;DHT22;39605;52.704;6.752;2023-04-10T06:54:46;10.30;1.00
53711;DHT22;39605;52.704;6.752;2023-04-10T06:57:11;10.20;1.00
53711;DHT22;39605;52.704;6.752;2023-04-10T06:59:37;10.20;1.00
53711;DHT22;39605;52.704;6.752;2023-04-10T07:02:03;10.20;1.00
53711;DHT22;39605;52.704;6.752;2023-04-10T07:04:29;10.30;1.00
53711;DHT22;39605;52.704;6.752;2023-04-10T07:06:55;10.30;1.00
53711;DHT22;39605;52.704;6.752;2023-04-10T07:09:21;10.40;1.00
53711;DHT22;39605;52.704;6.752;2023-04-10T07:11:47;10.50;1.00
53711;DHT22;39605;52.704;6.752;2023-04-10T07:14:13;10.50;1.00
53711;DHT22;39605;52.704;6.752;2023-04-10T07:16:39;10.50;1.00
53711;DHT22;39605;52.704;6.752;2023-04-10T07:19:05;10.60;1.00
53711;DHT22;39605;52.704;6.752;2023-04-10T07:21:30;11.00;1.00
53711;DHT22;39605;52.704;6.752;2023-04-10T07:23:57;11.40;1.00
53711;DHT22;39605;52.704;6.752;2023-04-10T07:26:23;12.00;1.00
53711;DHT22;39605;52.704;6.752;2023-04-10T07:28:49;12.80;1.00
53711;DHT22;39605;52.704;6.752;2023-04-10T07:31:15;13.10;99.90
53711;DHT22;39605;52.704;6.752;2023-04-10T07:33:43;13.00;99.90
53711;DHT22;39605;52.704;6.752;2023-04-10T07:36:09;13.00;78.40
53711;DHT22;39605;52.704;6.752;2023-04-10T07:38:35;13.30;33.70
53711;DHT22;39605;52.704;6.752;2023-04-10T07:41:01;13.20;1.00
53711;DHT22;39605;52.704;6.752;2023-04-10T07:43:26;13.10;1.00
53711;DHT22;39605;52.704;6.752;2023-04-10T07:45:52;13.10;1.00
53711;DHT22;39605;52.704;6.752;2023-04-10T07:48:19;13.40;99.90
53711;DHT22;39605;52.704;6.752;2023-04-10T07:50:44;13.90;99.90
53711;DHT22;39605;52.704;6.752;2023-04-10T07:53:10;14.10;99.90
53711;DHT22;39605;52.704;6.752;2023-04-10T07:55:40;14.30;99.90
53711;DHT22;39605;52.704;6.752;2023-04-10T07:58:06;14.20;1.00
53711;DHT22;39605;52.704;6.752;2023-04-10T08:00:32;14.00;1.00
53711;DHT22;39605;52.704;6.752;2023-04-10T08:02:58;13.90;1.00
53711;DHT22;39605;52.704;6.752;2023-04-10T08:05:24;13.60;99.90
53711;DHT22;39605;52.704;6.752;2023-04-10T08:07:50;13.60;99.90
53711;DHT22;39605;52.704;6.752;2023-04-10T08:10:15;13.60;99.90
53711;DHT22;39605;52.704;6.752;2023-04-10T08:12:41;13.50;1.00
53711;DHT22;39605;52.704;6.752;2023-04-10T08:15:07;13.50;99.90
53711;DHT22;39605;52.704;6.752;2023-04-10T08:17:33;13.50;99.90
53711;DHT22;39605;52.704;6.752;2023-04-10T08:19:58;13.60;1.00
53711;DHT22;39605;52.704;6.752;2023-04-10T08:22:24;13.60;99.90
53711;DHT22;39605;52.704;6.752;2023-04-10T08:24:50;13.80;99.90
53711;DHT22;39605;52.704;6.752;2023-04-10T08:27:15;13.80;99.90
53711;DHT22;39605;52.704;6.752;2023-04-10T08:29:41;13.70;99.90
53711;DHT22;39605;52.704;6.752;2023-04-10T08:32:07;13.70;99.90
53711;DHT22;39605;52.704;6.752;2023-04-10T08:34:33;13.80;99.90
53711;DHT22;39605;52.704;6.752;2023-04-10T08:36:59;13.90;99.90
53711;DHT22;39605;52.704;6.752;2023-04-10T08:39:25;14.00;99.90
53711;DHT22;39605;52.704;6.752;2023-04-10T08:41:50;14.00;99.90
53711;DHT22;39605;52.704;6.752;2023-04-10T08:44:16;14.10;80.90
53711;DHT22;39605;52.704;6.752;2023-04-10T08:46:44;14.20;1.00
53711;DHT22;39605;52.704;6.752;2023-04-10T08:49:16;14.20;3.80
53711;DHT22;39605;52.704;6.752;2023-04-10T08:51:48;14.10;1.00
53711;DHT22;39605;52.704;6.752;2023-04-10T08:54:27;14.30;1.00
53711;DHT22;39605;52.704;6.752;2023-04-10T08:56:55;14.30;99.90
53711;DHT22;39605;52.704;6.752;2023-04-10T08:59:21;14.40;99.90
53711;DHT22;39605;52.704;6.752;2023-04-10T09:01:47;14.50;99.90
53711;DHT22;39605;52.704;6.752;2023-04-10T09:04:13;14.60;99.90
53711;DHT22;39605;52.704;6.752;2023-04-10T09:06:39;14.80;99.90
53711;DHT22;39605;52.704;6.752;2023-04-10T09:09:05;15.00;99.90
53711;DHT22;39605;52.704;6.752;2023-04-10T09:19:37;15.70;1.00
53711;DHT22;39605;52.704;6.752;2023-04-10T09:22:03;15.70;99.90
53711;DHT22;39605;52.704;6.752;2023-04-10T09:24:29;15.80;30.10
53711;DHT22;39605;52.704;6.752;2023-04-10T09:26:55;16.00;99.90
53711;DHT22;39605;52.704;6.752;2023-04-10T09:29:20;16.20;99.90
53711;DHT22;39605;52.704;6.752;2023-04-10T09:31:46;16.30;1.00
53711;DHT22;39605;52.704;6.752;2023-04-10T09:34:14;16.20;1.00
53711;DHT22;39605;52.704;6.752;2023-04-10T09:36:52;16.20;1.00
53711;DHT22;39605;52.704;6.752;2023-04-10T09:39:18;16.10;1.00
53711;DHT22;39605;52.704;6.752;2023-04-10T09:41:52;16.20;31.10
53711;DHT22;39605;52.704;6.752;2023-04-10T09:44:40;16.30;15.00
53711;DHT22;39605;52.704;6.752;2023-04-10T09:47:19;16.30;33.80
53711;DHT22;39605;52.704;6.752;2023-04-10T09:49:47;16.20;43.00
53711;DHT22;39605;52.704;6.752;2023-04-10T09:52:18;16.10;42.40
53711;DHT22;39605;52.704;6.752;2023-04-10T09:54:44;16.00;62.00
53711;DHT22;39605;52.704;6.752;2023-04-10T09:57:12;16.10;63.30
53711;DHT22;39605;52.704;6.752;2023-04-10T09:59:41;16.20;64.90
53711;DHT22;39605;52.704;6.752;2023-04-10T10:02:10;16.30;70.70
53711;DHT22;39605;52.704;6.752;2023-04-10T10:04:38;16.40;69.40
53711;DHT22;39605;52.704;6.752;2023-04-10T10:07:06;16.50;70.80
53711;DHT22;39605;52.704;6.752;2023-04-10T10:09:33;16.50;69.70
53711;DHT22;39605;52.704;6.752;2023-04-10T10:12:00;16.70;70.30
53711;DHT22;39605;52.704;6.752;2023-04-10T10:14:27;16.70;69.10
53711;DHT22;39605;52.704;6.752;2023-04-10T10:16:55;16.80;69.70
53711;DHT22;39605;52.704;6.752;2023-04-10T10:19:30;17.00;69.90
53711;DHT22;39605;52.704;6.752;2023-04-10T10:21:59;17.20;73.20
53711;DHT22;39605;52.704;6.752;2023-04-10T10:24:27;17.10;75.70
53711;DHT22;39605;52.704;6.752;2023-04-10T10:26:58;17.30;74.70
53711;DHT22;39605;52.704;6.752;2023-04-10T10:29:31;17.20;75.80
53711;DHT22;39605;52.704;6.752;2023-04-10T10:31:59;17.30;75.10
53711;DHT22;39605;52.704;6.752;2023-04-10T10:34:27;17.30;75.40
53711;DHT22;39605;52.704;6.752;2023-04-10T10:36:53;17.20;73.40
53711;DHT22;39605;52.704;6.752;2023-04-10T10:39:28;17.00;73.40
53711;DHT22;39605;52.704;6.752;2023-04-10T10:44:47;16.90;75.60
53711;DHT22;39605;52.704;6.752;2023-04-10T10:47:27;16.80;74.70
53711;DHT22;39605;52.704;6.752;2023-04-10T10:49:58;17.00;76.00
53711;DHT22;39605;52.704;6.752;2023-04-10T10:52:37;17.00;73.70
53711;DHT22;39605;52.704;6.752;2023-04-10T10:57:54;17.20;74.60
53711;DHT22;39605;52.704;6.752;2023-04-10T11:00:24;17.20;74.50
53711;DHT22;39605;52.704;6.752;2023-04-10T11:05:51;16.90;74.60
53711;DHT22;39605;52.704;6.752;2023-04-10T11:08:39;16.90;74.60
53711;DHT22;39605;52.704;6.752;2023-04-10T11:11:24;16.90;75.20
53711;DHT22;39605;52.704;6.752;2023-04-10T11:16:18;17.00;73.40
53711;DHT22;39605;52.704;6.752;2023-04-10T11:21:14;17.20;73.00
53711;DHT22;39605;52.704;6.752;2023-04-10T11:29:00;17.10;73.50
53711;DHT22;39605;52.704;6.752;2023-04-10T11:31:27;17.00;71.40
53711;DHT22;39605;52.704;6.752;2023-04-10T11:36:24;16.80;71.10
53711;DHT22;39605;52.704;6.752;2023-04-10T11:41:51;16.70;71.00
53711;DHT22;39605;52.704;6.752;2023-04-10T11:44:25;16.80;71.60
53711;DHT22;39605;52.704;6.752;2023-04-10T11:46:51;16.80;72.50
53711;DHT22;39605;52.704;6.752;2023-04-10T11:49:22;16.80;72.20
53711;DHT22;39605;52.704;6.752;2023-04-10T11:51:49;16.70;71.30
53711;DHT22;39605;52.704;6.752;2023-04-10T11:54:16;16.70;70.50
53711;DHT22;39605;52.704;6.752;2023-04-10T11:59:24;16.80;71.70
53711;DHT22;39605;52.704;6.752;2023-04-10T12:01:50;16.80;72.00
53711;DHT22;39605;52.704;6.752;2023-04-10T12:04:22;16.80;71.50
53711;DHT22;39605;52.704;6.752;2023-04-10T12:06:54;16.80;72.00
53711;DHT22;39605;52.704;6.752;2023-04-10T12:09:20;16.80;72.00
53711;DHT22;39605;52.704;6.752;2023-04-10T12:11:51;17.00;72.40
53711;DHT22;39605;52.704;6.752;2023-04-10T12:14:19;17.10;71.90
53711;DHT22;39605;52.704;6.752;2023-04-10T12:16:45;17.20;71.60
53711;DHT22;39605;52.704;6.752;2023-04-10T12:19:12;17.40;72.30
53711;DHT22;39605;52.704;6.752;2023-04-10T12:21:40;17.50;71.90
53711;DHT22;39605;52.704;6.752;2023-04-10T12:24:07;17.50;71.20
53711;DHT22;39605;52.704;6.752;2023-04-10T12:26:33;17.70;72.70
53711;DHT22;39605;52.704;6.752;2023-04-10T12:28:58;17.80;71.80
53711;DHT22;39605;52.704;6.752;2023-04-10T12:31:35;17.90;70.90
53711;DHT22;39605;52.704;6.752;2023-04-10T12:34:02;18.00;71.20
53711;DHT22;39605;52.704;6.752;2023-04-10T12:36:30;18.10;71.80
53711;DHT22;39605;52.704;6.752;2023-04-10T12:39:00;18.30;71.70
53711;DHT22;39605;52.704;6.752;2023-04-10T12:41:33;18.40;71.00
53711;DHT22;39605;52.704;6.752;2023-04-10T12:44:11;18.30;70.70
53711;DHT22;39605;52.704;6.752;2023-04-10T12:46:37;18.10;70.70
53711;DHT22;39605;52.704;6.752;2023-04-10T12:49:11;17.90;70.40
53711;DHT22;39605;52.704;6.752;2023-04-10T12:51:55;17.70;70.90
53711;DHT22;39605;52.704;6.752;2023-04-10T12:54:34;17.60;72.40
53711;DHT22;39605;52.704;6.752;2023-04-10T12:57:02;17.60;73.00
53711;DHT22;39605;52.704;6.752;2023-04-10T12:59:31;17.60;72.10
53711;DHT22;39605;52.704;6.752;2023-04-10T13:01:58;17.50;72.50
53711;DHT22;39605;52.704;6.752;2023-04-10T13:04:23;17.40;72.90
53711;DHT22;39605;52.704;6.752;2023-04-10T13:06:49;17.30;72.00
53711;DHT22;39605;52.704;6.752;2023-04-10T13:09:17;17.30;71.70
53711;DHT22;39605;52.704;6.752;2023-04-10T13:11:43;17.20;71.70
53711;DHT22;39605;52.704;6.752;2023-04-10T13:14:09;17.20;71.40
53711;DHT22;39605;52.704;6.752;2023-04-10T13:16:35;17.20;72.20
53711;DHT22;39605;52.704;6.752;2023-04-10T13:19:01;17.20;73.50
53711;DHT22;39605;52.704;6.752;2023-04-10T13:21:30;17.20;72.40
53711;DHT22;39605;52.704;6.752;2023-04-10T13:23:56;17.30;72.40
53711;DHT22;39605;52.704;6.752;2023-04-10T13:26:23;17.30;71.70
53711;DHT22;39605;52.704;6.752;2023-04-10T13:28:49;17.30;72.30
53711;DHT22;39605;52.704;6.752;2023-04-10T13:31:14;17.40;73.30
53711;DHT22;39605;52.704;6.752;2023-04-10T13:33:44;17.40;72.50
53711;DHT22;39605;52.704;6.752;2023-04-10T13:36:12;17.50;73.40
53711;DHT22;39605;52.704;6.752;2023-04-10T13:38:38;17.40;72.50
53711;DHT22;39605;52.704;6.752;2023-04-10T13:41:04;17.40;72.10
53711;DHT22;39605;52.704;6.752;2023-04-10T13:43:30;17.40;73.00
53711;DHT22;39605;52.704;6.752;2023-04-10T13:45:55;17.40;72.70
53711;DHT22;39605;52.704;6.752;2023-04-10T13:48:21;17.40;73.10
53711;DHT22;39605;52.704;6.752;2023-04-10T13:50:47;17.30;72.70
53711;DHT22;39605;52.704;6.752;2023-04-10T13:53:12;17.20;72.30
53711;DHT22;39605;52.704;6.752;2023-04-10T13:55:38;17.20;72.20
53711;DHT22;39605;52.704;6.752;2023-04-10T13:58:09;17.10;71.80
53711;DHT22;39605;52.704;6.752;2023-04-10T14:00:36;17.00;72.30
53711;DHT22;39605;52.704;6.752;2023-04-10T14:03:02;17.00;72.40
53711;DHT22;39605;52.704;6.752;2023-04-10T14:05:27;16.90;72.60
53711;DHT22;39605;52.704;6.752;2023-04-10T14:07:53;16.80;72.60
53711;DHT22;39605;52.704;6.752;2023-04-10T14:10:22;16.70;72.60
53711;DHT22;39605;52.704;6.752;2023-04-10T14:12:48;16.70;73.10
53711;DHT22;39605;52.704;6.752;2023-04-10T14:15:15;16.60;73.50
53711;DHT22;39605;52.704;6.752;2023-04-10T14:17:41;16.60;73.40
53711;DHT22;39605;52.704;6.752;2023-04-10T14:20:07;16.50;72.80
53711;DHT22;39605;52.704;6.752;2023-04-10T14:22:36;16.50;73.40
53711;DHT22;39605;52.704;6.752;2023-04-10T14:25:01;16.50;73.20
53711;DHT22;39605;52.704;6.752;2023-04-10T14:27:27;16.40;73.80
53711;DHT22;39605;52.704;6.752;2023-04-10T14:29:52;16.30;72.80
53711;DHT22;39605;52.704;6.752;2023-04-10T14:32:19;16.30;73.60
53711;DHT22;39605;52.704;6.752;2023-04-10T14:34:45;16.30;73.70
53711;DHT22;39605;52.704;6.752;2023-04-10T14:37:11;16.30;73.60
53711;DHT22;39605;52.704;6.752;2023-04-10T14:39:36;16.30;74.80
53711;DHT22;39605;52.704;6.752;2023-04-10T14:42:02;16.20;74.00
53711;DHT22;39605;52.704;6.752;2023-04-10T14:44:28;16.20;73.90
53711;DHT22;39605;52.704;6.752;2023-04-10T14:46:57;16.20;74.40
53711;DHT22;39605;52.704;6.752;2023-04-10T14:49:23;16.10;73.50
53711;DHT22;39605;52.704;6.752;2023-04-10T14:51:48;16.10;74.10
53711;DHT22;39605;52.704;6.752;2023-04-10T14:54:14;16.00;74.20
53711;DHT22;39605;52.704;6.752;2023-04-10T14:56:48;15.90;74.00
53711;DHT22;39605;52.704;6.752;2023-04-10T14:59:15;15.90;74.30
53711;DHT22;39605;52.704;6.752;2023-04-10T15:01:41;15.90;74.60
53711;DHT22;39605;52.704;6.752;2023-04-10T15:04:06;15.90;74.40
53711;DHT22;39605;52.704;6.752;2023-04-10T15:06:33;15.90;74.20
53711;DHT22;39605;52.704;6.752;2023-04-10T15:08:59;15.90;73.90
53711;DHT22;39605;52.704;6.752;2023-04-10T15:11:25;15.90;74.80
53711;DHT22;39605;52.704;6.752;2023-04-10T15:13:51;15.80;74.60
53711;DHT22;39605;52.704;6.752;2023-04-10T15:16:16;15.80;74.00
53711;DHT22;39605;52.704;6.752;2023-04-10T15:18:45;15.80;73.90
53711;DHT22;39605;52.704;6.752;2023-04-10T15:21:11;15.80;74.70
53711;DHT22;39605;52.704;6.752;2023-04-10T15:23:36;15.70;74.70
53711;DHT22;39605;52.704;6.752;2023-04-10T15:26:02;15.70;75.40
53711;DHT22;39605;52.704;6.752;2023-04-10T15:28:28;15.70;77.00
53711;DHT22;39605;52.704;6.752;2023-04-10T15:30:53;15.60;78.80
53711;DHT22;39605;52.704;6.752;2023-04-10T15:33:19;15.50;77.40
53711;DHT22;39605;52.704;6.752;2023-04-10T15:35:49;15.50;77.70
53711;DHT22;39605;52.704;6.752;2023-04-10T15:38:15;15.40;78.30
53711;DHT22;39605;52.704;6.752;2023-04-10T15:40:41;15.50;76.70
53711;DHT22;39605;52.704;6.752;2023-04-10T15:43:06;15.50;77.50
53711;DHT22;39605;52.704;6.752;2023-04-10T15:45:33;15.50;76.70
53711;DHT22;39605;52.704;6.752;2023-04-10T15:47:59;15.50;76.60
53711;DHT22;39605;52.704;6.752;2023-04-10T15:50:26;15.60;76.00
53711;DHT22;39605;52.704;6.752;2023-04-10T15:52:55;15.60;76.20
53711;DHT22;39605;52.704;6.752;2023-04-10T15:55:21;15.60;76.50
53711;DHT22;39605;52.704;6.752;2023-04-10T15:57:46;15.60;75.70
53711;DHT22;39605;52.704;6.752;2023-04-10T16:00:13;15.60;75.70
53711;DHT22;39605;52.704;6.752;2023-04-10T16:02:38;15.60;75.20
53711;DHT22;39605;52.704;6.752;2023-04-10T16:05:05;15.70;75.80
53711;DHT22;39605;52.704;6.752;2023-04-10T16:07:32;15.70;75.30
53711;DHT22;39605;52.704;6.752;2023-04-10T16:10:00;15.60;76.20
53711;DHT22;39605;52.704;6.752;2023-04-10T16:12:26;15.60;76.50
53711;DHT22;39605;52.704;6.752;2023-04-10T16:14:52;15.60;76.30
53711;DHT22;39605;52.704;6.752;2023-04-10T16:17:17;15.50;77.50
53711;DHT22;39605;52.704;6.752;2023-04-10T16:19:43;15.50;76.90
53711;DHT22;39605;52.704;6.752;2023-04-10T16:22:09;15.40;78.20
53711;DHT22;39605;52.704;6.752;2023-04-10T16:24:35;15.30;78.90
53711;DHT22;39605;52.704;6.752;2023-04-10T16:27:00;15.30;79.90